Airfield :
LOGIN :

Register | Disclaimer

   EN    FR    IT 

 










Legend :    VFR   Marginal VFR   IFR   Intensive IFR   Very Intensive IFR
Visi :
Ceiling :
>= 8 km
>= 3000ft
5 to 8 km
1000 to 3000 ft
1500m to 5 km
500 to 1000 ft
800 to 1500m
200 to 500 ft
< 800m
< 200 ft
Symbols :   Thunderstorms  Fog  Heavy snow  Heavy precipitations  Wind > 20 kt
SIGMETs :     Misc.  Thunderstorms  Icing  Turbulence  Mountain Waves  Volcanic Ashes






- Airport Elevation : 26 ft
- IATA code : SYY


EGPO - Stornoway

CURRENT METAR :
  • 250020Z AUTO 24006KT 9999 SCT011/// BKN021/// OVC032/// 11/10 Q1020

EXPIRED METARs :
  • 242320Z AUTO 23004KT 9999 FEW023/// BKN033/// 11/09 Q1021
  • 242250Z AUTO 22004KT 9999 FEW017/// BKN022/// OVC026/// 11/09 Q1021
  • 242220Z AUTO 22004KT 9999 SCT017/// BKN025/// OVC030/// 11/09 Q1021
  • 242150Z AUTO 22004KT 9999 OVC035/// 11/09 Q1022

TAF TAF EGPO
Valid from the 25 at 00:00 until the 25 at 09:00 UTC


242258Z 2500/2509 24005KT 9999 FEW015 SCT030
TEMPO 2500/2509 BKN014
PROB30
TEMPO 2500/2509 7000 -RA BKN009
BECMG 2506/2509 24015KT
PROB30
TEMPO 2507/2509 23018G28KT
ATIS : +44 1851 707 444



MET'MAP, your aeronautical weather chart ! - Copyright ORBIFLY December 2007 - Disclaimer

ORBIFLY MET'MAP TEAM :

Programming & Development : Alexandra Zaïnal
Original concept : Baudouin d'Aumeries
Technical & hardware support : Manuel Goepfert
Assistance : Marc-Olivier Méhu




SOURCES & CREDITS :

   NOAA